Time;durP1;ratioP1;P1;durP2;ratioP2;P2;SDS_P1;SDS_P2;PMS_P1;PMS_P2;Temp;Humidity;BMP_temperature;BMP_pressure;BME280_temperature;BME280_humidity;BME280_pressure;Samples;Min_cycle;Max_cycle;Signal;HPM_P1;HPM_P2
2022/07/16 00:03:41;;;;;;;2.80;2.00;;;14.90;99.90;;;-144.05;56.43;125687.94;6130628;23;20141;-88
2022/07/16 00:06:06;;;;;;;4.25;2.10;;;14.80;99.90;;;-144.05;56.49;125687.94;6143733;23;20014;-87
2022/07/16 00:08:32;;;;;;;5.07;2.22;;;14.80;99.90;;;-144.05;56.78;125687.94;6105461;23;20016;-89
2022/07/16 00:10:58;;;;;;;7.78;2.60;;;14.70;99.90;;;-144.05;57.13;125687.94;6130620;23;20127;-87
2022/07/16 00:13:25;;;;;;;3.47;1.73;;;14.70;99.90;;;-144.05;57.09;125687.94;6129134;23;20005;-89
2022/07/16 00:15:54;;;;;;;3.47;2.00;;;14.60;99.90;;;-144.05;57.53;125687.94;6131760;23;20020;-87
2022/07/16 00:21:06;;;;;;;3.90;2.60;;;14.60;99.90;;;-144.05;57.85;125687.94;6129898;23;20016;-86
2022/07/16 00:23:32;;;;;;;5.07;3.10;;;14.60;99.90;;;-144.05;57.93;125687.94;6104025;23;20014;-87
2022/07/16 00:26:01;;;;;;;4.78;2.67;;;14.70;99.90;;;-144.05;57.64;125687.94;6103791;23;20025;-85
2022/07/16 00:28:27;;;;;;;8.25;3.33;;;14.80;99.90;;;-144.05;57.29;125687.94;6104133;23;20014;-88
2022/07/16 00:30:52;;;;;;;5.38;3.05;;;14.90;99.90;;;-144.05;57.10;125687.94;6129903;23;20310;-86
2022/07/16 00:33:19;;;;;;;4.72;2.50;;;15.00;99.90;;;-144.05;57.03;125687.94;6129229;23;20297;-87
2022/07/16 00:35:44;;;;;;;6.82;3.20;;;15.10;99.90;;;-144.05;56.64;125687.94;6129069;23;20010;-87
2022/07/16 00:38:12;;;;;;;6.50;3.10;;;15.10;99.90;;;-144.05;56.45;125687.94;6128972;23;20061;-86
2022/07/16 00:40:38;;;;;;;5.70;2.53;;;15.20;99.90;;;-144.05;56.26;125687.94;6130280;23;20005;-89
2022/07/16 00:43:11;;;;;;;4.65;2.35;;;15.30;99.90;;;-144.05;55.99;125687.94;6130229;23;20020;-88
2022/07/16 00:45:39;;;;;;;7.18;2.50;;;15.40;99.90;;;-144.05;55.68;125687.94;6129304;23;20017;-87
2022/07/16 00:48:07;;;;;;;3.60;2.60;;;15.50;99.90;;;-144.05;55.73;125687.94;6104711;23;20014;-87
2022/07/16 00:50:38;;;;;;;5.50;2.30;;;15.60;99.90;;;-144.05;55.38;125687.94;6129150;23;20065;-88
2022/07/16 00:53:08;;;;;;;4.75;2.88;;;15.60;99.90;;;-144.05;55.14;125687.94;6129117;23;20160;-87
2022/07/16 00:55:35;;;;;;;6.28;2.45;;;15.60;99.90;;;-144.05;55.08;125687.94;6103999;23;20010;-86
2022/07/16 00:58:02;;;;;;;6.40;2.60;;;15.70;99.90;;;-144.05;54.80;125687.94;6133136;23;20013;-87
2022/07/16 01:00:29;;;;;;;4.28;2.30;;;15.80;99.90;;;-144.05;54.59;125687.94;6107382;23;20033;-89
2022/07/16 01:02:59;;;;;;;4.20;2.30;;;15.90;99.90;;;-144.05;54.66;125687.94;6104667;23;20519;-87
2022/07/16 01:05:27;;;;;;;5.65;2.47;;;15.90;99.90;;;-144.05;54.39;125687.94;6130035;23;20082;-86
2022/07/16 01:07:54;;;;;;;5.03;2.25;;;15.90;99.90;;;-144.05;54.49;125687.94;6131910;23;20042;-90
2022/07/16 01:10:21;;;;;;;3.92;2.38;;;15.90;99.90;;;-144.05;54.53;125687.94;6130007;23;20033;-88
2022/07/16 01:12:48;;;;;;;4.68;2.17;;;15.90;99.90;;;-144.05;54.42;125687.94;6118335;23;20010;-89
2022/07/16 01:15:14;;;;;;;9.05;2.10;;;16.00;99.90;;;-144.05;54.39;125687.94;6137381;23;20467;-88
2022/07/16 01:17:39;;;;;;;8.35;2.10;;;15.90;99.90;;;-144.05;54.02;125687.94;6131068;23;20487;-87
2022/07/16 01:20:06;;;;;;;5.07;2.30;;;16.10;99.90;;;-144.05;54.00;125687.94;6131193;23;20013;-85
2022/07/16 01:22:32;;;;;;;5.50;2.00;;;16.00;99.90;;;-144.05;53.93;125687.94;6131626;23;20013;-86
2022/07/16 01:24:58;;;;;;;5.20;2.13;;;16.00;99.90;;;-144.05;53.88;125687.94;6138425;23;20010;-87
2022/07/16 01:27:24;;;;;;;9.73;2.95;;;16.10;99.90;;;-144.05;53.72;125687.94;6152158;23;20026;-83
2022/07/16 01:29:51;;;;;;;4.60;2.05;;;16.10;99.90;;;-144.05;53.61;125687.94;6152058;23;20006;-86
2022/07/16 01:32:17;;;;;;;4.75;2.13;;;16.20;99.90;;;-144.05;53.53;125687.94;6147539;23;20088;-85
2022/07/16 01:34:43;;;;;;;3.28;2.05;;;16.20;99.90;;;-144.05;53.47;125687.94;6119650;23;20360;-86
2022/07/16 01:37:10;;;;;;;4.85;2.35;;;16.10;99.90;;;-144.05;53.49;125687.94;6120342;23;20014;-84
2022/07/16 01:39:40;;;;;;;4.85;2.53;;;16.20;99.90;;;-144.05;53.32;125687.94;6147054;23;19994;-83
2022/07/16 01:42:08;;;;;;;6.85;1.98;;;16.20;99.90;;;-144.05;53.31;125687.94;6151948;23;20013;-83
2022/07/16 01:44:37;;;;;;;6.57;2.47;;;16.20;99.90;;;-144.05;53.52;125687.94;6151293;23;20028;-86
2022/07/16 01:47:07;;;;;;;6.30;2.22;;;16.10;99.90;;;-144.05;53.37;125687.94;6139720;23;20060;-90
2022/07/16 01:49:39;;;;;;;5.15;2.10;;;16.10;99.90;;;-144.05;53.25;125687.94;6131316;23;20076;-89
2022/07/16 01:52:21;;;;;;;4.32;2.13;;;16.10;99.90;;;-144.05;53.13;125687.94;6107277;23;20002;-87
2022/07/16 01:54:53;;;;;;;7.50;2.42;;;16.20;99.90;;;-144.05;53.49;125687.94;6132897;23;20061;-90
2022/07/16 01:57:22;;;;;;;5.00;1.98;;;16.10;99.90;;;-144.05;53.48;125687.94;6107213;23;20010;-90
2022/07/16 01:59:48;;;;;;;5.10;2.30;;;16.10;99.90;;;-144.05;53.66;125687.94;6129897;23;20049;-90
2022/07/16 02:02:15;;;;;;;6.32;2.30;;;16.00;99.90;;;-144.05;53.92;125687.94;6130908;23;20005;-90
2022/07/16 02:04:42;;;;;;;3.70;1.92;;;15.90;99.90;;;-144.05;54.00;125687.94;6129067;23;20010;-91
2022/07/16 02:07:08;;;;;;;3.58;2.17;;;16.00;99.90;;;-144.05;53.95;125687.94;6104753;23;20512;-92
2022/07/16 02:09:35;;;;;;;3.15;2.00;;;15.90;99.90;;;-144.05;53.94;125687.94;6130382;23;20040;-89
2022/07/16 02:12:01;;;;;;;6.00;2.60;;;15.90;99.90;;;-144.05;53.81;125687.94;6129276;23;20006;-91
2022/07/16 02:14:27;;;;;;;6.72;2.20;;;15.90;99.90;;;-144.05;53.96;125687.94;6129296;23;20001;-84
2022/07/16 02:16:53;;;;;;;6.18;2.05;;;15.90;99.90;;;-144.05;53.79;125687.94;6128253;23;20425;-88
2022/07/16 02:19:19;;;;;;;4.30;2.20;;;15.90;99.90;;;-144.05;53.71;125687.94;6127868;23;20037;-88
2022/07/16 02:21:45;;;;;;;4.95;1.95;;;15.90;99.90;;;-144.05;53.79;125687.94;6103871;23;20014;-89
2022/07/16 02:24:11;;;;;;;4.03;1.90;;;15.90;99.90;;;-144.05;53.49;125687.94;6128321;23;20039;-89
2022/07/16 02:26:37;;;;;;;4.93;2.38;;;15.90;99.90;;;-144.05;53.35;125687.94;6129822;23;20084;-90
2022/07/16 02:29:05;;;;;;;4.95;2.15;;;16.00;99.90;;;-144.05;53.30;125687.94;6127365;23;20010;-88
2022/07/16 02:31:30;;;;;;;3.95;2.10;;;16.00;99.90;;;-144.05;53.19;125687.94;6127404;23;20040;-89
2022/07/16 02:33:56;;;;;;;5.40;2.10;;;16.00;99.90;;;-144.05;53.20;125687.94;6103247;23;20050;-89
2022/07/16 02:36:22;;;;;;;7.38;2.10;;;16.00;99.90;;;-144.05;53.06;125687.94;6129145;23;20002;-90
2022/07/16 02:38:48;;;;;;;4.97;2.08;;;16.00;99.90;;;-144.05;53.11;125687.94;6127813;23;20432;-90
2022/07/16 02:41:14;;;;;;;9.40;2.55;;;16.00;99.90;;;-144.05;53.01;125687.94;6103552;23;20037;-89
2022/07/16 02:43:40;;;;;;;5.82;2.20;;;16.00;99.90;;;-144.05;52.74;125687.94;6103854;23;20017;-87
2022/07/16 02:46:06;;;;;;;4.50;1.80;;;16.10;99.90;;;-144.05;52.78;125687.94;6129972;23;20014;-88
2022/07/16 02:48:32;;;;;;;5.72;1.98;;;16.00;99.90;;;-144.05;52.70;125687.94;6129945;23;20016;-90
2022/07/16 02:50:57;;;;;;;3.20;1.63;;;16.00;99.90;;;-144.05;52.85;125687.94;6105649;23;20010;-88
2022/07/16 02:53:23;;;;;;;3.97;2.13;;;16.00;99.90;;;-144.05;52.75;125687.94;6129287;23;20030;-88
2022/07/16 02:55:50;;;;;;;4.85;1.85;;;16.00;99.90;;;-144.05;52.94;125687.94;6130168;23;20061;-90
2022/07/16 02:58:16;;;;;;;6.88;2.10;;;16.00;99.90;;;-144.05;52.84;125687.94;6127683;23;20444;-87
2022/07/16 03:00:45;;;;;;;4.20;2.05;;;16.00;99.90;;;-144.05;52.91;125687.94;6127992;23;20024;-87
2022/07/16 03:03:12;;;;;;;4.38;1.90;;;16.10;99.90;;;-144.05;52.91;125687.94;6127843;23;20006;-85
2022/07/16 03:05:38;;;;;;;4.00;2.20;;;16.10;99.90;;;-144.05;52.65;125687.94;6103298;23;20089;-89
2022/07/16 03:08:05;;;;;;;7.80;2.22;;;16.10;99.90;;;-144.05;52.73;125687.94;6127301;23;20037;-89
2022/07/16 03:10:31;;;;;;;6.90;2.47;;;16.10;99.90;;;-144.05;52.62;125687.94;6127525;23;20002;-89
2022/07/16 03:12:56;;;;;;;5.28;2.20;;;16.10;99.90;;;-144.05;52.79;125687.94;6103022;23;20002;-87
2022/07/16 03:15:22;;;;;;;6.20;2.00;;;16.10;99.90;;;-144.05;52.67;125687.94;6102645;23;20013;-87
2022/07/16 03:17:48;;;;;;;5.53;1.83;;;16.10;99.90;;;-144.05;52.60;125687.94;6102826;23;20010;-88
2022/07/16 03:20:14;;;;;;;8.82;2.97;;;16.10;99.90;;;-144.05;52.51;125687.94;6102994;23;20006;-88
2022/07/16 03:22:46;;;;;;;5.20;2.40;;;16.10;99.90;;;-144.05;52.61;125687.94;6139867;23;20009;-86
2022/07/16 03:25:15;;;;;;;4.22;2.00;;;16.20;99.90;;;-144.05;52.39;125687.94;6141284;23;20153;-86
2022/07/16 03:27:40;;;;;;;8.45;2.38;;;16.20;99.90;;;-144.05;52.22;125687.94;6126951;23;20160;-85
2022/07/16 03:30:08;;;;;;;7.28;1.88;;;16.20;99.90;;;-144.05;52.29;125687.94;6128698;23;20010;-90
2022/07/16 03:32:34;;;;;;;6.55;2.47;;;16.20;99.90;;;-144.05;52.29;125687.94;6130578;23;20013;-88
2022/07/16 03:35:06;;;;;;;6.15;2.05;;;16.20;99.90;;;-144.05;52.15;125687.94;6102944;23;20006;-89
2022/07/16 03:37:33;;;;;;;5.45;2.30;;;16.20;99.90;;;-144.05;52.02;125687.94;6127751;23;20006;-89
2022/07/16 03:39:59;;;;;;;3.75;2.30;;;16.20;99.90;;;-144.05;52.29;125687.94;6110182;23;20045;-88
2022/07/16 03:42:26;;;;;;;5.70;2.45;;;16.20;99.90;;;-144.05;52.08;125687.94;6123112;23;20361;-86
2022/07/16 03:44:52;;;;;;;3.45;1.77;;;16.30;99.90;;;-144.05;51.97;125687.94;6147331;23;20005;-87
2022/07/16 03:47:18;;;;;;;5.93;2.05;;;16.30;99.90;;;-144.05;52.12;125687.94;6123183;23;20009;-87
2022/07/16 03:49:44;;;;;;;2.92;1.65;;;16.30;99.90;;;-144.05;51.88;125687.94;6135585;23;20348;-85
2022/07/16 03:52:09;;;;;;;5.43;2.00;;;16.30;99.90;;;-144.05;51.93;125687.94;6131024;23;20026;-90
2022/07/16 03:54:35;;;;;;;4.97;2.05;;;16.20;99.90;;;-144.05;51.94;125687.94;6127840;23;20014;-89
2022/07/16 09:57:18;;;;;;;2.97;0.90;;;26.20;68.60;;;-144.05;30.45;125687.94;6086717;23;20076;-88
2022/07/16 09:59:46;;;;;;;1.98;0.93;;;24.60;66.30;;;-144.05;30.80;125687.94;6111948;23;20013;-88
2022/07/16 10:02:16;;;;;;;2.17;0.73;;;24.40;67.30;;;-144.05;30.04;125687.94;6112202;23;20061;-90
2022/07/16 10:04:43;;;;;;;2.95;0.95;;;24.80;66.70;;;-144.05;30.27;125687.94;6114654;23;20017;-87
2022/07/16 10:07:16;;;;;;;2.58;0.70;;;25.40;66.70;;;-144.05;29.30;125687.94;6130411;23;20005;-87
2022/07/16 10:09:45;;;;;;;3.20;0.95;;;25.90;65.00;;;-144.05;29.32;125687.94;6145976;23;20018;-88
2022/07/16 10:12:17;;;;;;;3.67;1.27;;;25.70;64.60;;;-144.05;29.93;125687.94;6144077;23;20061;-85
2022/07/16 10:15:09;;;;;;;3.15;1.20;;;25.10;65.00;;;-144.05;30.80;125687.94;6140534;23;20018;-88
2022/07/16 10:17:48;;;;;;;5.35;0.80;;;24.50;66.40;;;-144.05;30.33;125687.94;6141779;23;20006;-86
2022/07/16 10:20:29;;;;;;;2.15;0.73;;;24.80;66.60;;;-144.05;29.71;125687.94;6143626;23;20057;-89
2022/07/16 10:23:07;;;;;;;2.50;1.27;;;25.40;65.10;;;-144.05;29.72;125687.94;6167069;23;20002;-88
2022/07/16 10:25:38;;;;;;;4.88;1.25;;;25.20;64.20;;;-144.05;29.68;125687.94;6166049;23;20006;-89
2022/07/16 10:28:57;;;;;;;2.67;0.90;;;25.30;64.40;;;-144.05;29.43;125687.94;6165397;23;20006;-88
2022/07/16 10:35:06;;;;;;;2.45;0.93;;;25.90;61.60;;;-144.05;28.45;125687.94;6142879;23;20119;-88
2022/07/16 10:37:44;;;;;;;3.83;1.00;;;26.20;60.90;;;-144.05;28.52;125687.94;6136582;23;20016;-85
2022/07/16 10:40:12;;;;;;;3.63;1.05;;;26.10;60.30;;;-144.05;28.69;125687.94;6161570;23;20006;-86
2022/07/16 10:42:48;;;;;;;5.25;0.90;;;25.80;60.40;;;-144.05;28.59;125687.94;6136579;23;20431;-86
2022/07/16 10:45:20;;;;;;;2.25;1.20;;;26.20;60.50;;;-144.05;28.96;125687.94;6139296;23;20051;-86
2022/07/16 10:47:50;;;;;;;2.60;0.98;;;26.20;60.10;;;-144.05;28.91;125687.94;6138612;23;20013;-88
2022/07/16 10:50:23;;;;;;;1.77;0.80;;;26.40;60.70;;;-144.05;28.73;125687.94;6166553;23;20017;-86
2022/07/16 10:52:52;;;;;;;5.93;1.02;;;26.00;60.00;;;-144.05;29.50;125687.94;6137871;23;20016;-86
2022/07/16 10:55:40;;;;;;;3.08;1.00;;;25.10;61.00;;;-144.05;30.90;125687.94;6158963;23;20006;-85
2022/07/16 10:58:06;;;;;;;3.65;1.10;;;24.40;63.40;;;-144.05;30.54;125687.94;6158439;23;20480;-88
2022/07/16 11:00:33;;;;;;;2.03;0.82;;;24.60;65.70;;;-144.05;29.77;125687.94;6158206;23;20006;-89
2022/07/16 11:03:02;;;;;;;1.33;0.93;;;25.10;63.60;;;-144.05;29.60;125687.94;6132019;23;20010;-84
2022/07/16 11:05:31;;;;;;;1.60;0.80;;;25.60;63.50;;;-144.05;28.92;125687.94;6159127;23;20455;-89
2022/07/16 11:08:11;;;;;;;2.70;0.90;;;25.50;60.90;;;-144.05;29.04;125687.94;6135673;23;20017;-86
2022/07/16 11:10:40;;;;;;;1.92;0.90;;;25.90;60.60;;;-144.05;28.27;125687.94;6157320;23;20002;-86
2022/07/16 11:13:17;;;;;;;3.08;0.80;;;26.50;60.30;;;-144.05;28.74;125687.94;6158037;23;20021;-86
2022/07/16 11:15:43;;;;;;;4.20;0.95;;;26.60;60.10;;;-144.05;27.83;125687.94;6159337;23;20089;-87
2022/07/16 11:18:15;;;;;;;2.88;0.82;;;26.50;57.80;;;-144.05;29.21;125687.94;6162688;23;20070;-88
2022/07/16 11:20:42;;;;;;;2.33;1.00;;;25.70;59.90;;;-144.05;29.39;125687.94;6173673;23;20032;-87
2022/07/16 11:23:08;;;;;;;2.10;0.90;;;25.40;61.10;;;-144.05;29.84;125687.94;6175261;23;20014;-85
2022/07/16 11:25:52;;;;;;;3.67;0.90;;;25.40;63.80;;;-144.05;30.60;125687.94;6137925;23;20014;-87
2022/07/16 11:28:18;;;;;;;5.32;1.30;;;25.00;63.20;;;-144.05;30.71;125687.94;6163658;23;20014;-87
2022/07/16 11:31:08;;;;;;;5.07;1.20;;;24.60;63.90;;;-144.05;31.06;125687.94;6162788;23;20017;-86
2022/07/16 11:33:36;;;;;;;4.93;0.93;;;24.60;65.00;;;-144.05;31.07;125687.94;6161329;23;20013;-89
2022/07/16 11:36:08;;;;;;;5.65;0.95;;;24.40;65.70;;;-144.05;30.94;125687.94;6160050;23;20077;-86
2022/07/16 11:38:35;;;;;;;3.85;1.10;;;24.80;66.50;;;-144.05;29.78;125687.94;6144679;23;20009;-86
2022/07/16 11:41:02;;;;;;;3.30;1.00;;;25.60;63.50;;;-144.05;28.91;125687.94;6172877;23;20021;-86
2022/07/16 11:43:30;;;;;;;4.15;1.25;;;26.10;61.10;;;-144.05;28.33;125687.94;6138705;23;20012;-86
2022/07/16 11:45:56;;;;;;;3.72;1.20;;;26.70;59.70;;;-144.05;27.57;125687.94;6137682;23;20033;-86
2022/07/16 11:48:22;;;;;;;5.47;1.10;;;26.80;57.60;;;-144.05;27.79;125687.94;6138566;23;20010;-86
2022/07/16 11:50:48;;;;;;;3.08;1.15;;;26.50;57.20;;;-144.05;28.21;125687.94;6137258;23;20093;-84
2022/07/16 11:53:28;;;;;;;2.75;0.80;;;26.30;57.90;;;-144.05;28.47;125687.94;6135136;23;20012;-88
2022/07/16 11:55:54;;;;;;;3.67;0.90;;;26.30;58.10;;;-144.05;28.12;125687.94;6137540;23;20009;-87
2022/07/16 11:58:20;;;;;;;1.60;0.70;;;26.30;57.60;;;-144.05;27.97;125687.94;6136991;23;20057;-88
2022/07/16 12:00:48;;;;;;;4.63;0.88;;;26.50;58.00;;;-144.05;28.26;125687.94;6140771;23;20041;-86
2022/07/16 12:03:17;;;;;;;1.65;0.90;;;26.50;57.90;;;-144.05;27.57;125687.94;6172196;23;20010;-88
2022/07/16 12:05:43;;;;;;;3.38;0.88;;;26.30;56.20;;;-144.05;28.34;125687.94;6147752;23;20025;-82
2022/07/16 12:08:11;;;;;;;2.13;1.02;;;26.10;57.20;;;-144.05;27.44;125687.94;6172320;23;20010;-86
2022/07/16 12:10:37;;;;;;;3.97;1.02;;;26.40;56.10;;;-144.05;26.68;125687.94;6164888;23;20013;-87
2022/07/16 12:13:09;;;;;;;3.75;0.80;;;26.50;54.50;;;-144.05;26.80;125687.94;6159579;23;20006;-88
2022/07/16 12:15:58;;;;;;;1.58;0.85;;;26.70;54.80;;;-144.05;26.50;125687.94;6159873;23;20013;-87
2022/07/16 12:18:25;;;;;;;2.22;0.90;;;27.00;54.30;;;-144.05;26.69;125687.94;6159369;23;20037;-86
2022/07/16 12:20:52;;;;;;;2.75;0.90;;;27.20;54.60;;;-144.05;26.52;125687.94;6160458;23;20010;-88
2022/07/16 12:23:37;;;;;;;4.07;1.13;;;27.10;54.00;;;-144.05;25.77;125687.94;6164410;23;20014;-85
2022/07/16 12:26:05;;;;;;;2.35;0.70;;;27.30;52.40;;;-144.05;26.13;125687.94;6133841;23;20020;-86
2022/07/16 12:28:33;;;;;;;1.27;0.65;;;27.40;53.10;;;-144.05;25.91;125687.94;6133637;23;20009;-87
2022/07/16 12:31:09;;;;;;;4.82;0.95;;;27.30;52.50;;;-144.05;26.35;125687.94;6136904;23;20002;-86
2022/07/16 12:33:37;;;;;;;2.13;0.85;;;27.30;53.80;;;-144.05;26.02;125687.94;6136883;23;20012;-85
2022/07/16 12:36:07;;;;;;;3.13;0.73;;;27.30;52.80;;;-144.05;26.26;125687.94;6090109;23;20022;-87
2022/07/16 12:38:59;;;;;;;1.35;0.73;;;27.50;53.10;;;-144.05;26.05;125687.94;6159750;23;20010;-87
2022/07/16 12:41:36;;;;;;;3.58;1.10;;;27.50;52.30;;;-144.05;26.48;125687.94;6162183;23;20014;-87
2022/07/16 12:44:14;;;;;;;4.05;0.98;;;27.60;53.20;;;-144.05;25.64;125687.94;6142208;23;20508;-89
2022/07/16 12:46:52;;;;;;;3.67;0.80;;;27.50;51.50;;;-144.05;25.41;125687.94;6133763;23;20010;-84
2022/07/16 12:49:25;;;;;;;3.35;0.80;;;27.60;51.20;;;-144.05;25.63;125687.94;6133188;23;20041;-88
2022/07/16 12:51:59;;;;;;;5.35;1.02;;;27.40;51.80;;;-144.05;26.38;125687.94;6134871;23;20009;-88
2022/07/16 12:54:26;;;;;;;3.38;0.95;;;27.20;53.40;;;-144.05;25.96;125687.94;6134584;23;20006;-84
2022/07/16 12:59:37;;;;;;;4.70;1.55;;;27.30;53.10;;;-144.05;26.20;125687.94;6134833;23;20048;-87
2022/07/16 13:02:05;;;;;;;3.17;1.13;;;27.40;52.20;;;-144.05;26.26;125687.94;6133803;23;20009;-86
2022/07/16 13:04:31;;;;;;;3.25;0.90;;;27.40;51.90;;;-144.05;26.34;125687.94;6132724;23;20073;-84
2022/07/16 13:06:57;;;;;;;4.20;0.95;;;27.20;52.40;;;-144.05;26.51;125687.94;6158501;23;20006;-86
2022/07/16 13:09:23;;;;;;;3.88;1.23;;;26.70;53.20;;;-144.05;27.50;125687.94;6158332;23;20014;-85
2022/07/16 13:11:52;;;;;;;4.45;1.00;;;26.00;54.40;;;-144.05;27.38;125687.94;6159876;23;20013;-86
2022/07/16 13:14:18;;;;;;;3.40;0.80;;;25.90;54.60;;;-144.05;27.57;125687.94;6159429;23;20097;-85
2022/07/16 13:16:44;;;;;;;2.25;0.85;;;25.80;55.40;;;-144.05;27.36;125687.94;6160222;23;20006;-86
2022/07/16 13:19:11;;;;;;;3.78;0.85;;;25.60;54.50;;;-144.05;27.60;125687.94;6136404;23;20006;-86
2022/07/16 13:21:37;;;;;;;4.30;0.88;;;25.70;54.90;;;-144.05;27.21;125687.94;6165580;23;20010;-86
2022/07/16 13:24:05;;;;;;;1.92;0.63;;;25.80;54.00;;;-144.05;27.30;125687.94;6135411;23;20016;-86
2022/07/16 13:26:35;;;;;;;3.42;0.98;;;25.90;54.30;;;-144.05;27.07;125687.94;6158589;23;20014;-87
2022/07/16 13:29:01;;;;;;;3.33;0.80;;;26.00;53.90;;;-144.05;27.76;125687.94;6136486;23;20006;-88
2022/07/16 13:31:27;;;;;;;2.72;1.00;;;26.40;55.60;;;-144.05;26.12;125687.94;6138128;23;20081;-87
2022/07/16 13:33:53;;;;;;;2.10;0.70;;;26.70;52.30;;;-144.05;26.93;125687.94;6149078;23;20002;-85
2022/07/16 13:36:20;;;;;;;5.30;0.93;;;26.60;53.10;;;-144.05;26.84;125687.94;6176363;23;20022;-82
2022/07/16 13:38:48;;;;;;;2.90;0.95;;;26.80;53.40;;;-144.05;26.87;125687.94;6151514;23;20002;-81
2022/07/16 13:41:16;;;;;;;5.97;1.00;;;26.60;53.20;;;-144.05;26.90;125687.94;6176930;23;20006;-82
2022/07/16 13:43:43;;;;;;;4.68;1.13;;;26.70;53.40;;;-144.05;26.75;125687.94;6151067;23;20018;-80
2022/07/16 13:46:10;;;;;;;2.78;0.90;;;26.70;53.20;;;-144.05;26.27;125687.94;6173517;23;20014;-85
2022/07/16 13:48:39;;;;;;;2.20;0.55;;;26.80;52.50;;;-144.05;26.62;125687.94;6146578;23;20025;-85
2022/07/16 13:51:05;;;;;;;4.72;0.88;;;26.50;53.00;;;-144.05;26.73;125687.94;6171221;23;19994;-84
2022/07/16 13:53:31;;;;;;;3.65;0.77;;;26.40;53.00;;;-144.05;27.06;125687.94;6164785;23;20060;-88
2022/07/16 13:55:57;;;;;;;2.35;0.57;;;26.60;53.70;;;-144.05;26.66;125687.94;6134456;23;20010;-85
2022/07/16 13:58:24;;;;;;;3.58;0.90;;;26.50;53.00;;;-144.05;27.05;125687.94;6129859;23;20344;-86
2022/07/16 14:00:59;;;;;;;4.88;0.90;;;26.30;53.70;;;-144.05;27.89;125687.94;6133163;23;20100;-88
2022/07/16 14:03:27;;;;;;;2.77;1.00;;;25.90;55.20;;;-144.05;27.33;125687.94;6134764;23;20010;-85
2022/07/16 14:05:58;;;;;;;3.28;0.70;;;25.80;54.00;;;-144.05;27.67;125687.94;6157838;23;20249;-86
2022/07/16 14:08:26;;;;;;;3.08;1.00;;;25.60;54.80;;;-144.05;27.51;125687.94;6155060;23;20010;-89
2022/07/16 14:10:54;;;;;;;2.63;0.70;;;25.50;54.40;;;-144.05;27.82;125687.94;6132077;23;20017;-85
2022/07/16 14:13:22;;;;;;;3.75;0.70;;;25.40;55.00;;;-144.05;28.23;125687.94;6134897;23;20002;-85
2022/07/16 14:15:49;;;;;;;5.28;0.90;;;25.10;55.00;;;-144.05;28.24;125687.94;6156864;23;20033;-85
2022/07/16 14:18:16;;;;;;;2.85;0.93;;;25.30;55.60;;;-144.05;27.63;125687.94;6157408;23;20495;-88
2022/07/16 14:20:45;;;;;;;3.00;0.98;;;25.50;54.80;;;-144.05;27.56;125687.94;6158599;23;20013;-85
2022/07/16 14:23:12;;;;;;;5.03;1.13;;;25.70;55.10;;;-144.05;27.79;125687.94;6132751;23;20010;-87
2022/07/16 14:25:41;;;;;;;4.57;0.82;;;25.70;55.30;;;-144.05;27.45;125687.94;6133451;23;20010;-86
2022/07/16 14:28:10;;;;;;;2.47;0.60;;;25.80;54.40;;;-144.05;27.20;125687.94;6138308;23;20403;-87
2022/07/16 14:30:38;;;;;;;3.20;0.73;;;26.00;54.50;;;-144.05;27.29;125687.94;6141174;23;20005;-86
2022/07/16 14:33:05;;;;;;;2.15;0.80;;;26.00;54.40;;;-144.05;27.47;125687.94;6160607;23;20025;-89
2022/07/16 14:35:32;;;;;;;1.52;0.70;;;26.20;54.30;;;-144.05;27.07;125687.94;6158800;23;20045;-85
2022/07/16 14:37:58;;;;;;;4.07;1.50;;;26.30;54.20;;;-144.05;27.04;125687.94;6158385;23;20014;-85
2022/07/16 14:40:24;;;;;;;3.90;1.30;;;26.30;53.90;;;-144.05;27.56;125687.94;6160523;23;20012;-85
2022/07/16 14:42:51;;;;;;;4.28;0.93;;;25.80;54.40;;;-144.05;28.25;125687.94;6158194;23;20006;-88
2022/07/16 14:45:21;;;;;;;2.58;0.95;;;25.00;55.40;;;-144.05;28.59;125687.94;6154661;23;20006;-85
2022/07/16 14:47:50;;;;;;;2.03;0.95;;;24.90;56.20;;;-144.05;28.37;125687.94;6133572;23;20002;-88
2022/07/16 14:50:19;;;;;;;2.47;0.70;;;25.00;56.20;;;-144.05;28.35;125687.94;6156419;23;20021;-86
2022/07/16 14:52:46;;;;;;;2.88;0.90;;;24.70;56.60;;;-144.05;28.46;125687.94;6156061;23;20085;-86
2022/07/16 14:55:14;;;;;;;3.25;1.10;;;24.70;56.20;;;-144.05;28.10;125687.94;6156571;23;20352;-85
2022/07/16 14:57:41;;;;;;;6.57;1.83;;;24.90;55.70;;;-144.05;28.23;125687.94;6132720;23;20066;-88
2022/07/16 15:00:13;;;;;;;5.00;1.50;;;25.10;55.70;;;-144.05;27.76;125687.94;6155718;23;20121;-90
2022/07/16 15:02:44;;;;;;;4.47;1.15;;;25.10;55.00;;;-144.05;27.77;125687.94;6155446;23;20017;-85
2022/07/16 15:05:11;;;;;;;3.58;0.98;;;25.10;54.80;;;-144.05;27.86;125687.94;6156598;23;20013;-89
2022/07/16 15:07:38;;;;;;;4.22;0.73;;;25.00;54.90;;;-144.05;28.09;125687.94;6155448;23;20065;-87
2022/07/16 15:10:05;;;;;;;3.47;0.80;;;24.70;55.40;;;-144.05;27.91;125687.94;6155680;23;20024;-85
2022/07/16 15:12:31;;;;;;;2.13;0.65;;;24.50;55.00;;;-144.05;28.55;125687.94;6156492;23;20010;-84
2022/07/16 15:14:57;;;;;;;3.67;1.13;;;24.40;56.10;;;-144.05;28.52;125687.94;6132651;23;20014;-86
2022/07/16 15:17:24;;;;;;;2.70;0.75;;;24.60;56.70;;;-144.05;27.96;125687.94;6156003;23;20006;-84
2022/07/16 15:19:49;;;;;;;3.45;0.80;;;24.70;55.60;;;-144.05;28.14;125687.94;6157329;23;20010;-86
2022/07/16 15:22:17;;;;;;;4.63;1.08;;;24.50;55.60;;;-144.05;28.56;125687.94;6156397;23;20036;-85
2022/07/16 15:24:43;;;;;;;2.97;0.82;;;24.40;56.50;;;-144.05;28.96;125687.94;6130606;23;20298;-84
2022/07/16 15:27:09;;;;;;;2.78;0.75;;;24.20;57.00;;;-144.05;29.27;125687.94;6141356;23;19990;-84
2022/07/16 15:29:34;;;;;;;3.53;0.70;;;24.20;57.90;;;-144.05;29.18;125687.94;6166617;23;20045;-87
2022/07/16 15:32:00;;;;;;;4.10;0.75;;;24.40;57.90;;;-144.05;28.85;125687.94;6156221;23;20030;-86
2022/07/16 15:34:26;;;;;;;3.20;0.70;;;24.40;57.00;;;-144.05;28.72;125687.94;6132136;23;20394;-87
2022/07/16 15:36:52;;;;;;;2.15;0.65;;;24.30;56.90;;;-144.05;28.83;125687.94;6135591;23;20021;-87
2022/07/16 15:39:19;;;;;;;3.17;0.60;;;24.10;57.00;;;-144.05;29.04;125687.94;6132710;23;20065;-85
2022/07/16 15:41:45;;;;;;;1.92;0.82;;;24.00;57.60;;;-144.05;29.10;125687.94;6131816;23;20021;-88
2022/07/16 15:44:11;;;;;;;1.90;0.60;;;23.80;57.30;;;-144.05;28.94;125687.94;6134507;23;20046;-87
2022/07/16 15:46:37;;;;;;;4.28;0.55;;;23.80;57.20;;;-144.05;29.05;125687.94;6134751;23;20006;-88
2022/07/16 15:49:03;;;;;;;3.50;0.70;;;23.90;57.50;;;-144.05;28.45;125687.94;6158160;23;20377;-85
2022/07/16 15:51:29;;;;;;;6.38;1.55;;;23.80;56.00;;;-144.05;28.82;125687.94;6160397;23;20045;-82
2022/07/16 15:53:55;;;;;;;4.38;1.10;;;23.80;57.60;;;-144.05;28.97;125687.94;6159996;23;20029;-85
2022/07/16 16:01:33;;;;;;;;;;;23.90;57.90;;;-144.05;28.92;125687.94;6164671;23;20017;-90
2022/07/16 16:03:59;;;;;;;3.13;1.20;;;23.90;57.50;;;-144.05;29.36;125687.94;6136197;23;20318;-90
2022/07/16 16:06:25;;;;;;;8.07;1.05;;;23.90;57.60;;;-144.05;29.09;125687.94;6135974;23;20005;-89
2022/07/16 16:08:51;;;;;;;5.47;0.98;;;23.90;57.90;;;-144.05;28.96;125687.94;6160756;23;20455;-89
2022/07/16 16:11:18;;;;;;;2.88;0.50;;;23.80;56.80;;;-144.05;29.04;125687.94;6161423;23;20376;-90
2022/07/16 16:13:46;;;;;;;3.28;1.10;;;23.70;56.90;;;-144.05;29.29;125687.94;6136154;23;20009;-89
2022/07/16 16:16:14;;;;;;;3.47;0.82;;;23.60;57.60;;;-144.05;29.00;125687.94;6160717;23;20012;-90
2022/07/16 16:18:41;;;;;;;3.35;1.20;;;23.50;56.90;;;-144.05;29.19;125687.94;6161677;23;20010;-90
2022/07/16 16:21:08;;;;;;;4.55;0.75;;;23.40;57.40;;;-144.05;29.25;125687.94;6160695;23;20016;-88
2022/07/16 16:23:36;;;;;;;3.92;0.98;;;23.20;57.10;;;-144.05;29.48;125687.94;6135334;23;20068;-89